Airfield :
LOGIN :

Register | Disclaimer

   EN    FR    IT 

 










Legend :    VFR   Marginal VFR   IFR   Intensive IFR   Very Intensive IFR
Visi :
Ceiling :
>= 8 km
>= 3000ft
5 to 8 km
1000 to 3000 ft
1500m to 5 km
500 to 1000 ft
800 to 1500m
200 to 500 ft
< 800m
< 200 ft
Symbols :   Thunderstorms  Fog  Heavy snow  Heavy precipitations  Wind > 20 kt
SIGMETs :     Misc.  Thunderstorms  Icing  Turbulence  Mountain Waves  Volcanic Ashes







- Airport Elevation : 74 ft
- IATA code : EIN


EHEH - Eindhoven

CURRENT METAR :
  • 230625Z AUTO 23003KT 3700 BR OVC017 08/07 Q1029 GRN 24005KT 3500 BR SCT018 OVC020

EXPIRED METARs :
  • 230601Z AUTO 23003KT 3800 BR OVC018 08/06 Q1029 GRN 24005KT 3500 BR SCT018 OVC020
  • 230555Z AUTO 23003KT 220V330 4000 BR OVC018 08/06 Q1029 GRN 24005KT 3500 BR SCT018 OVC020
  • 230536Z AUTO 23002KT 3700 BR OVC018 08/06 Q1029 GRN 24005KT 3500 BR SCT018 OVC020
  • 230525Z AUTO 21004KT 3700 BR OVC019/// 08/06 Q1029 GRN 24005KT 3500 BR SCT018 OVC020
  • 230501Z AUTO 22004KT 3500 BR BKN016 OVC020 08/06 Q1028 YLO
  • 230448Z AUTO 21004KT 3800 BR OVC016 08/06 Q1028 GRN
  • 230425Z AUTO 22004KT 3300 BR OVC017 08/06 Q1028 YLO
  • 230355Z AUTO 21004KT 3300 BR OVC017 08/06 Q1028 YLO

TAF TAF EHEH
Valid from the 23 at 06:00 until the 24 at 12:00 UTC


230555Z 2306/2412 VRB03KT 4000 BR FEW018 OVC020
BECMG 2306/2309 27005KT 7000 NSW
BECMG 2309/2311 33005KT
BECMG 2314/2316 03008KT
PROB40
TEMPO 2314/2317 FEW010 SCT015 BKN020
PROB30
TEMPO 2314/2316 SCT010 BKN015
PROB40 2403/2406 4000 BR MIFG
BECMG 2410/2412 33005KT
No reported NOTAMs for that airfield.



MET'MAP, your aeronautical weather chart ! - Copyright ORBIFLY December 2007 - Disclaimer

ORBIFLY MET'MAP TEAM :

Programming & Development : Alexandra Zaïnal
Concept & Development : Baudouin d'Aumeries
Co-Development & Prog : Marc-Olivier Méhu
Technical & hardware support : Manuel Goepfert

Contact : metmap@orbifly.com




SOURCES & CREDITS :

   NOAA